Vining, Iowa
Current Conditions -  °F | °C
As of 8:15 PM on Friday 31 Oct 2014 (Local Time) from KVTI Reporting Station
Clear Clear  
Wind Chill: 35°   Ceiling: Unl
Heat Index: 35°   Visibility: 10mi
Dew Point: 21°   Wind: 0mph
Humidity: 57%   Direction: NA
Pressure: 30.45"   Gusts: NA
Location:  41.99°N, 92.38°W
Report Text: KVTI 010115Z AUTO 00000KT 10SM CLR 02/M06 A3045 RMK AO2 T00161060
Loading
Personal Weather Stations






























Interactive Weather Map
Tropical Storm Tracking
New forecast layout! Learn more

10-Day Weather Forecast

Advertisements
Track Severe Weather on mobile